createdAt,value
2022-09-23T00:01:15.180Z,99.18
2022-09-23T00:03:45.520Z,98.78
2022-09-23T00:06:18.014Z,97.88
2022-09-23T00:08:45.366Z,97.91
2022-09-23T00:11:14.978Z,97.60
2022-09-23T00:13:43.725Z,98.06
2022-09-23T00:16:14.817Z,97.72
2022-09-23T00:18:42.253Z,98.38
2022-09-23T00:21:14.635Z,99.11
2022-09-23T00:23:42.926Z,98.58
2022-09-23T00:26:13.583Z,97.14
2022-09-23T00:28:40.747Z,98.61
2022-09-23T00:31:10.946Z,98.02
2022-09-23T00:33:38.099Z,97.11
2022-09-23T00:36:07.481Z,96.71
2022-09-23T00:38:34.590Z,97.86
2022-09-23T00:41:02.892Z,98.09
2022-09-23T00:43:46.245Z,98.82
2022-09-23T00:46:21.822Z,100.00
2022-09-23T00:48:54.570Z,100.00
2022-09-23T00:51:24.936Z,100.00
2022-09-23T00:53:52.798Z,100.00
2022-09-23T00:56:23.015Z,100.00
2022-09-23T00:58:51.033Z,100.00
2022-09-23T01:01:19.804Z,100.00
2022-09-23T01:03:47.386Z,100.00
2022-09-23T01:06:14.392Z,100.00
2022-09-23T01:08:44.399Z,100.00
2022-09-23T01:11:49.527Z,100.00
2022-09-23T01:14:35.576Z,100.00
2022-09-23T01:17:05.254Z,100.00
2022-09-23T01:19:59.548Z,100.00
2022-09-23T01:22:49.775Z,100.00
2022-09-23T01:25:31.955Z,100.00
2022-09-23T01:28:19.076Z,100.00
2022-09-23T01:31:17.688Z,100.00
2022-09-23T01:34:03.914Z,99.88
2022-09-23T01:36:40.245Z,99.74
2022-09-23T01:39:17.288Z,100.00
2022-09-23T01:42:09.611Z,100.00
2022-09-23T01:44:43.089Z,100.00
2022-09-23T01:47:27.807Z,100.00
2022-09-23T01:50:36.480Z,100.00
2022-09-23T01:53:10.901Z,100.00
2022-09-23T01:55:42.443Z,100.00
2022-09-23T01:58:35.661Z,100.00
2022-09-23T02:01:07.100Z,99.63
2022-09-23T02:03:42.203Z,100.00
2022-09-23T02:06:15.010Z,100.00
2022-09-23T02:08:47.277Z,99.95
2022-09-23T02:11:16.223Z,100.00
2022-09-23T02:13:48.811Z,100.00
2022-09-23T02:16:44.845Z,99.50
2022-09-23T02:19:27.239Z,99.35
2022-09-23T02:22:08.373Z,100.00
2022-09-23T02:24:38.731Z,100.00
2022-09-23T02:27:08.200Z,99.88
2022-09-23T02:29:54.024Z,100.00
2022-09-23T02:32:26.310Z,100.00
2022-09-23T02:35:18.154Z,100.00
2022-09-23T02:37:54.286Z,100.00
2022-09-23T02:40:46.882Z,100.00
2022-09-23T02:43:23.683Z,100.00
2022-09-23T02:45:50.548Z,100.00
2022-09-23T02:48:28.965Z,100.00
2022-09-23T02:50:55.756Z,100.00
2022-09-23T02:53:24.392Z,100.00
2022-09-23T02:55:51.217Z,100.00
2022-09-23T02:58:18.195Z,100.00
2022-09-23T03:01:33.849Z,100.00
2022-09-23T03:04:05.076Z,100.00
2022-09-23T03:06:48.139Z,100.00
2022-09-23T03:09:55.711Z,100.00
2022-09-23T03:12:52.905Z,100.00
2022-09-23T03:15:26.337Z,100.00
2022-09-23T03:18:14.823Z,100.00
2022-09-23T03:21:03.134Z,100.00
2022-09-23T03:23:37.142Z,100.00
2022-09-23T03:26:12.473Z,100.00
2022-09-23T03:28:43.687Z,100.00
2022-09-23T03:31:13.094Z,100.00
2022-09-23T03:33:46.967Z,100.00
2022-09-23T03:36:35.023Z,100.00
2022-09-23T03:39:07.045Z,100.00
2022-09-23T03:41:43.804Z,100.00
2022-09-23T03:44:11.972Z,100.00
2022-09-23T03:46:38.962Z,100.00
2022-09-23T03:49:15.767Z,100.00
2022-09-23T03:51:44.795Z,100.00
2022-09-23T03:54:11.813Z,100.00
2022-09-23T03:56:38.567Z,100.00
2022-09-23T03:59:05.497Z,100.00
2022-09-23T04:01:32.473Z,100.00
2022-09-23T04:04:00.102Z,100.00
2022-09-23T04:06:27.025Z,100.00
2022-09-23T04:08:54.044Z,100.00
2022-09-23T04:11:20.815Z,100.00
2022-09-23T04:13:47.716Z,100.00
2022-09-23T04:16:14.645Z,100.00
2022-09-23T04:18:44.751Z,100.00
2022-09-23T04:21:11.813Z,100.00
2022-09-23T04:23:38.587Z,100.00
2022-09-23T04:26:06.038Z,100.00
2022-09-23T04:28:33.007Z,100.00
2022-09-23T04:31:04.575Z,100.00
2022-09-23T04:33:31.828Z,100.00
2022-09-23T04:35:59.194Z,100.00
2022-09-23T04:38:26.618Z,100.00
2022-09-23T04:40:53.407Z,100.00
2022-09-23T04:43:22.893Z,100.00
2022-09-23T04:46:07.280Z,100.00
2022-09-23T04:48:36.659Z,100.00
2022-09-23T04:51:09.652Z,100.00
2022-09-23T04:53:39.376Z,100.00
2022-09-23T04:56:17.717Z,100.00
2022-09-23T04:58:46.100Z,100.00
2022-09-23T05:01:26.755Z,100.00
2022-09-23T05:04:02.393Z,100.00
2022-09-23T05:06:37.297Z,100.00
2022-09-23T05:09:07.216Z,100.00
2022-09-23T05:11:34.617Z,100.00
2022-09-23T05:14:01.826Z,100.00
2022-09-23T05:16:29.466Z,100.00
2022-09-23T05:18:56.292Z,100.00
2022-09-23T05:21:25.231Z,100.00
2022-09-23T05:23:55.353Z,100.00
2022-09-23T05:26:25.550Z,100.00
2022-09-23T05:28:53.906Z,100.00
2022-09-23T05:31:23.457Z,100.00
2022-09-23T05:33:57.379Z,100.00
2022-09-23T05:36:26.496Z,100.00
2022-09-23T05:38:54.662Z,100.00
2022-09-23T05:41:25.297Z,100.00
2022-09-23T05:43:53.853Z,100.00
2022-09-23T05:46:27.940Z,100.00
2022-09-23T05:49:01.138Z,100.00
2022-09-23T05:51:31.150Z,100.00
2022-09-23T05:53:59.752Z,100.00
2022-09-23T05:56:28.369Z,100.00
2022-09-23T05:58:57.403Z,100.00
2022-09-23T06:01:31.372Z,100.00
2022-09-23T06:03:58.487Z,100.00
2022-09-23T06:06:40.396Z,100.00
2022-09-23T06:09:11.366Z,100.00
2022-09-23T06:11:38.320Z,99.71
2022-09-23T06:14:05.796Z,98.77
2022-09-23T06:16:34.863Z,99.39
2022-09-23T06:19:06.159Z,98.96
2022-09-23T06:21:37.528Z,98.49
2022-09-23T06:24:07.026Z,98.23
2022-09-23T06:26:35.329Z,97.09
2022-09-23T06:29:03.432Z,96.18
2022-09-23T06:31:30.574Z,95.42
2022-09-23T06:34:12.527Z,95.75
2022-09-23T06:36:46.187Z,95.08
2022-09-23T06:39:15.206Z,94.83
2022-09-23T06:41:42.349Z,94.30
2022-09-23T06:44:09.133Z,93.63
2022-09-23T06:46:36.960Z,91.93
2022-09-23T06:49:03.999Z,91.51
2022-09-23T06:51:30.806Z,91.12
2022-09-23T06:53:57.534Z,92.63
2022-09-23T06:56:24.780Z,91.63
2022-09-23T06:58:52.691Z,91.23
2022-09-23T07:01:19.917Z,91.29
2022-09-23T07:03:48.495Z,89.54
2022-09-23T07:06:17.144Z,91.47
2022-09-23T07:08:47.066Z,90.36
2022-09-23T07:11:15.619Z,90.38
2022-09-23T07:13:42.884Z,90.17
2022-09-23T07:16:11.478Z,87.36
2022-09-23T07:18:39.142Z,86.50
2022-09-23T07:21:17.371Z,86.49
2022-09-23T07:23:46.599Z,84.52
2022-09-23T07:26:15.068Z,83.72
2022-09-23T07:28:41.915Z,83.76
2022-09-23T07:31:15.818Z,82.07
2022-09-23T07:33:44.272Z,82.90
2022-09-23T07:36:14.369Z,79.73
2022-09-23T07:38:45.145Z,78.95
2022-09-23T07:41:15.756Z,78.36
2022-09-23T07:43:45.263Z,78.39
2022-09-23T07:46:16.310Z,76.40
2022-09-23T07:48:44.516Z,75.21
2022-09-23T07:51:19.129Z,74.71
2022-09-23T07:53:51.238Z,73.46
2022-09-23T07:56:19.433Z,74.21
2022-09-23T07:58:59.977Z,72.94
2022-09-23T08:01:29.825Z,72.45
2022-09-23T08:03:58.592Z,71.36
2022-09-23T08:06:25.871Z,70.41
2022-09-23T08:08:53.608Z,70.19
2022-09-23T08:11:20.503Z,70.85
2022-09-23T08:13:47.779Z,68.69
2022-09-23T08:16:14.813Z,67.36
2022-09-23T08:18:45.243Z,65.62
2022-09-23T08:21:12.753Z,66.77
2022-09-23T08:23:39.852Z,66.17
2022-09-23T08:26:10.336Z,65.64
2022-09-23T08:28:43.535Z,64.61
2022-09-23T08:31:10.284Z,65.46
2022-09-23T08:33:37.245Z,64.14
2022-09-23T08:36:04.482Z,64.56
2022-09-23T08:38:31.776Z,62.56
2022-09-23T08:41:23.028Z,62.93
2022-09-23T08:43:54.198Z,59.89
2022-09-23T08:46:40.507Z,59.51
2022-09-23T08:49:12.370Z,60.13
2022-09-23T08:51:46.916Z,60.82
2022-09-23T08:54:17.766Z,60.01
2022-09-23T08:56:48.948Z,58.82
2022-09-23T08:59:36.745Z,59.03
2022-09-23T09:02:16.129Z,58.70
2022-09-23T09:04:45.697Z,58.54
2022-09-23T09:07:38.923Z,55.98
2022-09-23T09:10:25.490Z,55.07
2022-09-23T09:13:20.672Z,53.99
2022-09-23T09:16:11.500Z,54.93
2022-09-23T09:18:49.786Z,55.76
2022-09-23T09:21:16.974Z,56.25
2022-09-23T09:23:50.167Z,52.53
2022-09-23T09:26:22.655Z,52.53
2022-09-23T09:29:02.562Z,53.00
2022-09-23T09:31:49.114Z,52.81
2022-09-23T09:34:44.059Z,52.87
2022-09-23T09:37:19.451Z,51.96
2022-09-23T09:39:46.210Z,50.44
2022-09-23T09:42:21.048Z,51.95
2022-09-23T09:45:01.818Z,49.73
2022-09-23T09:47:47.948Z,51.83
2022-09-23T09:50:21.677Z,51.37
2022-09-23T09:52:51.266Z,51.06
2022-09-23T09:55:35.578Z,48.22
2022-09-23T09:58:05.207Z,47.01
2022-09-23T10:00:40.895Z,47.89
2022-09-23T10:03:13.798Z,48.02
2022-09-23T10:05:46.835Z,47.93
2022-09-23T10:08:23.102Z,47.68
2022-09-23T10:10:59.632Z,48.06
2022-09-23T10:13:29.412Z,48.91
2022-09-23T10:16:03.921Z,47.08
2022-09-23T10:18:47.327Z,46.09
2022-09-23T10:21:17.202Z,46.04
2022-09-23T10:23:46.596Z,49.24
2022-09-23T10:26:17.368Z,49.32
2022-09-23T10:28:50.518Z,48.41
2022-09-23T10:31:27.863Z,47.71
2022-09-23T10:33:59.676Z,48.15
2022-09-23T10:36:31.560Z,46.91
2022-09-23T10:39:23.069Z,45.45
2022-09-23T10:42:37.721Z,46.11
2022-09-23T10:45:52.207Z,44.30
2022-09-23T10:48:21.868Z,43.17
2022-09-23T10:50:51.710Z,43.66
2022-09-23T10:53:42.459Z,42.66
2022-09-23T10:56:34.520Z,41.36
2022-09-23T10:59:14.191Z,42.64
2022-09-23T11:01:49.710Z,43.93
2022-09-23T11:04:24.136Z,44.07
2022-09-23T11:07:20.719Z,44.59
2022-09-23T11:09:58.683Z,43.72
2022-09-23T11:12:42.637Z,43.92
2022-09-23T11:15:19.128Z,45.50
2022-09-23T11:18:17.081Z,44.26
2022-09-23T11:21:08.307Z,45.19
2022-09-23T11:24:17.774Z,48.06
2022-09-23T11:26:47.117Z,48.42
2022-09-23T11:29:53.794Z,50.06
2022-09-23T11:32:29.392Z,48.72
2022-09-23T11:35:19.502Z,48.75
2022-09-23T11:37:51.521Z,50.80
2022-09-23T11:40:25.253Z,50.43
2022-09-23T11:43:09.970Z,49.90
2022-09-23T11:45:42.507Z,46.14
2022-09-23T11:48:18.145Z,44.71
2022-09-23T11:50:54.040Z,41.34
2022-09-23T11:54:01.905Z,39.78
2022-09-23T11:56:36.770Z,38.76
2022-09-23T11:59:38.452Z,41.87
2022-09-23T12:02:20.379Z,41.82
2022-09-23T12:04:58.496Z,43.85
2022-09-23T12:07:46.711Z,42.18
2022-09-23T12:10:15.695Z,42.80
2022-09-23T12:13:04.898Z,43.83
2022-09-23T12:15:50.559Z,43.71
2022-09-23T12:18:56.350Z,37.48
2022-09-23T12:21:51.702Z,39.43
2022-09-23T12:24:43.187Z,42.94
2022-09-23T12:27:22.999Z,42.78
2022-09-23T12:29:56.666Z,44.08
2022-09-23T12:32:24.751Z,41.98
2022-09-23T12:34:53.468Z,40.94
2022-09-23T12:37:34.197Z,42.08
2022-09-23T12:40:22.780Z,40.13
2022-09-23T12:42:50.675Z,42.41
2022-09-23T12:45:28.148Z,43.14
2022-09-23T12:47:54.927Z,44.91
2022-09-23T12:50:51.061Z,44.30
2022-09-23T12:54:02.047Z,43.14
2022-09-23T12:56:37.989Z,46.32
2022-09-23T12:59:33.904Z,43.90
2022-09-23T13:02:26.899Z,40.52
2022-09-23T13:05:17.693Z,36.16
2022-09-23T13:07:48.737Z,32.34
2022-09-23T13:10:32.836Z,30.92
2022-09-23T13:13:02.329Z,29.57
2022-09-23T13:15:34.030Z,28.84
2022-09-23T13:18:19.082Z,27.83
2022-09-23T13:20:50.647Z,29.35
2022-09-23T13:23:22.340Z,30.42
2022-09-23T13:25:51.553Z,30.96
2022-09-23T13:28:27.273Z,32.77
2022-09-23T13:30:54.389Z,36.65
2022-09-23T13:33:29.728Z,37.86
2022-09-23T13:36:02.361Z,38.44
2022-09-23T13:38:31.994Z,40.16
2022-09-23T13:41:07.606Z,41.19
2022-09-23T13:43:41.570Z,42.66
2022-09-23T13:46:20.234Z,43.94
2022-09-23T13:48:51.091Z,45.57
2022-09-23T13:51:38.012Z,44.50
2022-09-23T13:54:30.988Z,44.47
2022-09-23T13:56:58.378Z,46.51
2022-09-23T13:59:36.316Z,44.14
2022-09-23T14:02:15.256Z,44.16
2022-09-23T14:04:43.212Z,42.62
2022-09-23T14:07:14.454Z,42.57
2022-09-23T14:09:44.274Z,43.29
2022-09-23T14:12:11.829Z,43.92
2022-09-23T14:14:42.563Z,41.29
2022-09-23T14:17:16.808Z,42.40
2022-09-23T14:19:44.021Z,42.96
2022-09-23T14:22:28.162Z,42.83
2022-09-23T14:24:56.567Z,44.15
2022-09-23T14:27:33.924Z,48.57
2022-09-23T14:30:02.864Z,45.15
2022-09-23T14:32:30.875Z,44.33
2022-09-23T14:35:00.841Z,45.07
2022-09-23T14:37:51.370Z,45.06
2022-09-23T14:40:22.804Z,47.88
2022-09-23T14:42:57.210Z,46.92
2022-09-23T14:45:28.979Z,43.52
2022-09-23T14:48:12.783Z,37.54
2022-09-23T14:50:48.554Z,34.90
2022-09-23T14:53:24.186Z,36.77
2022-09-23T14:56:07.218Z,38.33
2022-09-23T14:58:54.222Z,40.26
2022-09-23T15:01:33.324Z,43.55
2022-09-23T15:04:23.375Z,43.61
2022-09-23T15:07:00.984Z,40.66
2022-09-23T15:09:33.435Z,42.54
2022-09-23T15:12:21.884Z,40.49
2022-09-23T15:14:52.633Z,37.75
2022-09-23T15:17:35.678Z,42.03
2022-09-23T15:20:06.907Z,44.43
2022-09-23T15:22:43.554Z,47.85
2022-09-23T15:25:31.991Z,48.19
2022-09-23T15:28:10.576Z,49.20
2022-09-23T15:30:39.082Z,48.75
2022-09-23T15:33:06.462Z,46.38
2022-09-23T15:35:33.409Z,46.59
2022-09-23T15:38:02.179Z,48.53
2022-09-23T15:40:35.035Z,48.39
2022-09-23T15:43:21.213Z,47.49
2022-09-23T15:45:56.360Z,47.83
2022-09-23T15:48:27.952Z,48.92
2022-09-23T15:50:54.775Z,47.75
2022-09-23T15:53:24.289Z,49.48
2022-09-23T15:55:51.622Z,48.70
2022-09-23T15:58:20.111Z,48.33
2022-09-23T16:00:55.673Z,50.11
2022-09-23T16:03:28.993Z,51.30
2022-09-23T16:06:00.102Z,49.76
2022-09-23T16:08:28.339Z,48.90
2022-09-23T16:10:55.709Z,51.96
2022-09-23T16:13:23.033Z,51.72
2022-09-23T16:15:50.075Z,51.72
2022-09-23T16:18:17.013Z,52.36
2022-09-23T16:20:45.664Z,53.52
2022-09-23T16:23:43.519Z,55.36
2022-09-23T16:26:19.828Z,55.33
2022-09-23T16:28:48.522Z,56.11
2022-09-23T16:31:16.573Z,57.50
2022-09-23T16:33:47.887Z,58.42
2022-09-23T16:36:23.819Z,57.37
2022-09-23T16:38:50.901Z,60.00
2022-09-23T16:41:17.901Z,59.87
2022-09-23T16:43:44.662Z,56.15
2022-09-23T16:46:14.137Z,57.83
2022-09-23T16:48:42.141Z,55.69
2022-09-23T16:51:14.758Z,56.39
2022-09-23T16:53:42.750Z,56.84
2022-09-23T16:56:11.450Z,54.47
2022-09-23T16:58:39.294Z,59.00
2022-09-23T17:01:26.623Z,60.38
2022-09-23T17:03:53.408Z,58.79
2022-09-23T17:06:20.440Z,57.20
2022-09-23T17:08:51.072Z,57.63
2022-09-23T17:11:17.811Z,58.51
2022-09-23T17:13:45.068Z,60.91
2022-09-23T17:16:23.144Z,60.00
2022-09-23T17:18:50.154Z,62.31
2022-09-23T17:21:17.119Z,61.97
2022-09-23T17:23:43.899Z,62.01
2022-09-23T17:26:12.479Z,64.99
2022-09-23T17:28:39.480Z,64.09
2022-09-23T17:31:07.496Z,66.65
2022-09-23T17:33:38.806Z,67.11
2022-09-23T17:36:11.104Z,67.01
2022-09-23T17:38:41.565Z,70.57
2022-09-23T17:41:15.639Z,69.69
2022-09-23T17:43:48.335Z,71.15
2022-09-23T17:46:18.903Z,70.42
2022-09-23T17:48:54.108Z,71.32
2022-09-23T17:51:24.363Z,73.70
2022-09-23T17:53:51.676Z,72.85
2022-09-23T17:56:20.289Z,70.90
2022-09-23T17:58:48.691Z,72.22
2022-09-23T18:01:24.010Z,73.26
2022-09-23T18:03:59.261Z,74.33
2022-09-23T18:06:29.047Z,74.00
2022-09-23T18:08:58.600Z,75.21
2022-09-23T18:11:27.436Z,74.78
2022-09-23T18:13:54.728Z,76.20
2022-09-23T18:16:23.950Z,76.50
2022-09-23T18:18:52.376Z,77.10
2022-09-23T18:21:20.727Z,78.22
2022-09-23T18:23:47.901Z,78.48
2022-09-23T18:26:23.068Z,79.91
2022-09-23T18:28:52.777Z,80.27
2022-09-23T18:31:20.422Z,81.38
2022-09-23T18:33:52.023Z,82.76
2022-09-23T18:36:19.868Z,82.23
2022-09-23T18:38:47.772Z,82.30
2022-09-23T18:41:15.258Z,83.42
2022-09-23T18:43:47.616Z,83.87
2022-09-23T18:46:20.929Z,83.58
2022-09-23T18:49:06.746Z,83.18
2022-09-23T18:51:36.870Z,84.27
2022-09-23T18:54:06.668Z,84.19
2022-09-23T18:56:41.688Z,85.12
2022-09-23T18:59:20.550Z,84.96
2022-09-23T19:01:55.334Z,85.37
2022-09-23T19:04:24.831Z,87.78
2022-09-23T19:06:51.756Z,87.91
2022-09-23T19:09:19.027Z,88.61
2022-09-23T19:11:46.479Z,88.55
2022-09-23T19:14:13.709Z,88.39
2022-09-23T19:16:40.987Z,89.33
2022-09-23T19:19:08.401Z,90.15
2022-09-23T19:21:36.062Z,89.61
2022-09-23T19:24:06.101Z,90.88
2022-09-23T19:26:37.512Z,91.10
2022-09-23T19:29:06.020Z,89.95
2022-09-23T19:31:35.784Z,90.61
2022-09-23T19:34:10.688Z,90.41
2022-09-23T19:36:39.983Z,90.58
2022-09-23T19:39:12.232Z,91.37
2022-09-23T19:41:38.952Z,91.93
2022-09-23T19:44:07.315Z,92.08
2022-09-23T19:46:39.421Z,92.30
2022-09-23T19:49:07.497Z,92.88
2022-09-23T19:51:35.105Z,92.17
2022-09-23T19:54:03.374Z,93.05
2022-09-23T19:56:31.984Z,92.48
2022-09-23T19:59:00.216Z,92.79
2022-09-23T20:01:29.387Z,92.73
2022-09-23T20:03:56.401Z,92.78
2022-09-23T20:06:23.444Z,93.37
2022-09-23T20:08:50.419Z,93.72
2022-09-23T20:11:26.234Z,94.05
2022-09-23T20:14:02.224Z,93.03
2022-09-23T20:16:34.356Z,92.65
2022-09-23T20:19:02.863Z,93.66
2022-09-23T20:21:30.164Z,93.71
2022-09-23T20:23:57.853Z,93.53
2022-09-23T20:26:43.351Z,94.01
2022-09-23T20:29:11.156Z,93.88
2022-09-23T20:31:41.092Z,94.20
2022-09-23T20:34:10.303Z,94.00
2022-09-23T20:36:37.846Z,93.59
2022-09-23T20:39:09.113Z,93.66
2022-09-23T20:41:37.722Z,94.34
2022-09-23T20:44:15.220Z,95.34
2022-09-23T20:46:48.567Z,95.42
2022-09-23T20:49:17.190Z,95.38
2022-09-23T20:51:44.524Z,95.57
2022-09-23T20:54:12.265Z,95.36
2022-09-23T20:56:39.521Z,94.79
2022-09-23T20:59:06.449Z,94.32
2022-09-23T21:01:35.212Z,94.35
2022-09-23T21:04:04.937Z,94.11
2022-09-23T21:06:33.580Z,93.88
2022-09-23T21:09:00.867Z,94.36
2022-09-23T21:11:29.097Z,94.14
2022-09-23T21:13:56.543Z,93.92
2022-09-23T21:16:25.831Z,93.74
2022-09-23T21:18:53.079Z,94.60
2022-09-23T21:21:22.353Z,94.71
2022-09-23T21:23:50.605Z,94.10
2022-09-23T21:26:25.207Z,93.94
2022-09-23T21:28:58.126Z,93.96
2022-09-23T21:31:25.895Z,93.98
2022-09-23T21:34:13.426Z,95.08
2022-09-23T21:36:46.171Z,94.97
2022-09-23T21:39:12.976Z,95.25
2022-09-23T21:41:40.138Z,95.55
2022-09-23T21:44:07.949Z,95.32
2022-09-23T21:46:35.722Z,95.83
2022-09-23T21:49:03.741Z,96.50
2022-09-23T21:51:40.614Z,95.65
2022-09-23T21:54:15.653Z,95.68
2022-09-23T21:56:43.863Z,96.45
2022-09-23T21:59:10.811Z,96.43
2022-09-23T22:01:41.460Z,96.36
2022-09-23T22:04:15.396Z,96.83
2022-09-23T22:06:42.756Z,96.94
2022-09-23T22:09:13.468Z,96.90
2022-09-23T22:11:59.919Z,97.76
2022-09-23T22:14:27.306Z,97.40
2022-09-23T22:16:59.290Z,96.86
2022-09-23T22:19:28.582Z,96.27
2022-09-23T22:21:56.197Z,96.91
2022-09-23T22:24:23.309Z,97.77
2022-09-23T22:26:50.281Z,97.64
2022-09-23T22:29:35.964Z,97.77
2022-09-23T22:32:23.319Z,98.16
2022-09-23T22:34:51.906Z,98.59
2022-09-23T22:37:30.528Z,98.51
2022-09-23T22:39:57.541Z,97.62
2022-09-23T22:42:24.397Z,96.22
2022-09-23T22:44:51.729Z,96.64
2022-09-23T22:47:19.694Z,97.37
2022-09-23T22:49:47.088Z,97.60
2022-09-23T22:52:16.118Z,96.90
2022-09-23T22:54:43.367Z,97.56
2022-09-23T22:57:10.477Z,98.45
2022-09-23T22:59:37.680Z,98.56
2022-09-23T23:02:07.130Z,98.89
2022-09-23T23:04:33.993Z,99.11
2022-09-23T23:07:00.708Z,99.17
2022-09-23T23:09:27.708Z,99.57
2022-09-23T23:11:54.465Z,99.46
2022-09-23T23:14:21.415Z,100.00
2022-09-23T23:16:48.381Z,100.00
2022-09-23T23:19:17.337Z,99.80
2022-09-23T23:21:45.529Z,100.00
2022-09-23T23:24:21.551Z,99.89
2022-09-23T23:26:49.380Z,100.00
2022-09-23T23:29:17.852Z,100.00
2022-09-23T23:31:45.478Z,100.00
2022-09-23T23:34:14.809Z,100.00
2022-09-23T23:36:42.261Z,100.00
2022-09-23T23:39:09.889Z,99.59
2022-09-23T23:41:37.902Z,99.97
2022-09-23T23:44:05.697Z,99.53
2022-09-23T23:46:32.659Z,100.00
2022-09-23T23:49:00.447Z,100.00
2022-09-23T23:51:28.125Z,99.83
2022-09-23T23:53:55.944Z,100.00
2022-09-23T23:56:24.636Z,100.00
2022-09-23T23:58:56.402Z,100.00
